Terminal Aerodrome Forecast
Issued by NWS Central Illinois

Home | Current Version | Previous Version | Text Only | Print | Product List | Glossary On
Versions: 1 2 3 4 5 6 7 8 9 10 11 12 13 14 15 16 17 18 19 20
000
FTUS43 KILX 080538
TAFSPI
TAF
KSPI 080538Z 0806/0906 29014KT P6SM SCT120
     FM081400 29013G21KT P6SM SCT035
     FM081800 29014G24KT P6SM OVC025
     FM090300 30010KT P6SM BKN025=

USA.gov is the U.S. government's official web portal to all federal, state and local government web resources and services.